Terminal Aerodrome Forecast
Issued by NWS

Home | Current Version | Previous Version | Graphics & Text | Print | Product List | Glossary On
Versions: 1 2 3 4 5 6 7 8 9 10 11 12 13
000
FTUS45 KGGW 241731
TAFOLF
TAF
KOLF 241731Z 2418/2518 30020G29KT P6SM OVC025
     FM242100 32018G28KT P6SM BKN035
     FM250300 31006KT P6SM BKN070=

USA.gov is the U.S. government's official web portal to all federal, state and local government web resources and services.